Port Dufferin, Canada
Current Conditions -  °F | °C
As of 6:00 AM on Friday 21 Nov 2014 (Local Time) from CYHZ Reporting Station
Few Clouds Few Clouds  
Wind Chill: -6°   Ceiling: Unl
Heat Index: -1°   Visibility: 15mi
Dew Point: -4°   Wind: 9mph
Humidity: 80%   Direction: 280°W
Pressure: 29.71"   Gusts: NA
Location:  44.92°N, 62.38°W
Report Text: CYHZ 211000Z 28008KT 15SM FEW060 M01/M04 A2971 RMK SC1 SLP067
Loading
Personal Weather Stations






























Interactive Weather Map New forecast layout! Learn more

10-Day Weather Forecast

Advertisements
Track Severe Weather on mobile